< < Back
Terminal Aerodrome Forecast


Current Version              Previous Versions:   1  2  3  4  5  6  7  8  9  

Terminal Aerodrome Forecast

480
FTUS42 KGSP 282300
TAFAVL
TAF
KAVL 282325Z 2900/2924 17008KT P6SM SCT050
     FM291000 00000KT 2SM BR FEW020
     FM291300 16003KT P6SM SCT060=



Latest METAR

529
SAUS70 KWBC 291200 RRD
MTRAVL
METAR KAVL 291154Z 00000KT 3SM BR FEW002 18/17 A3019 RMK AO2 SLP195
T01830167 10194 20167 51013


USA.gov is the U.S. government's official web portal to all federal, state and local government web resources and services.